Wetterdaten: Woche 03.06.19 - 09.06.19 (KW23)
Datum Zeit Temp. I. Temp. A. Boden 5 cm Feuchte A. Sonne Luftdruck Regen Wind Sonnenschein Zeit Regen
03.06.2019 00:00 22,8 C 17,2 C 16,0 C 78 % 1 % 1019 hPa 0,0 l/m 0,0 km/h (0 Bft) 0,00 h 0,00 h
03.06.2019 01:00 22,8 C 16,3 C 15,5 C 80 % 2 % 1019 hPa 0,0 l/m 0,0 km/h (0 Bft) 0,00 h 0,00 h
03.06.2019 02:00 22,8 C 15,7 C 15,3 C 80 % 2 % 1019 hPa 0,0 l/m 0,0 km/h (0 Bft) 0,00 h 0,00 h
03.06.2019 03:00 22,7 C 14,9 C 14,6 C 81 % 3 % 1018 hPa 0,0 l/m 0,0 km/h (0 Bft) 0,00 h 0,00 h
03.06.2019 04:00 22,7 C 14,3 C 14,3 C 82 % 3 % 1018 hPa 0,0 l/m 0,0 km/h (0 Bft) 0,00 h 0,00 h
03.06.2019 05:00 22,7 C 13,7 C 13,9 C 83 % 7 % 1018 hPa 0,0 l/m 0,0 km/h (0 Bft) 0,65 h 0,00 h
03.06.2019 06:00 22,2 C 16,1 C 14,1 C 80 % 19 % 1018 hPa 0,0 l/m 0,0 km/h (0 Bft) 1,00 h 0,00 h
03.06.2019 07:00 22,0 C 19,6 C 15,5 C 74 % 20 % 1018 hPa 0,0 l/m 0,0 km/h (0 Bft) 0,25 h 0,00 h
03.06.2019 08:00 22,4 C 21,7 C 16,9 C 67 % 24 % 1019 hPa 0,0 l/m 0,0 km/h (0 Bft) 0,10 h 0,00 h
03.06.2019 09:00 22,6 C 23,5 C 18,4 C 59 % 56 % 1019 hPa 0,0 l/m 0,0 km/h (0 Bft) 0,85 h 0,00 h
03.06.2019 10:00 22,6 C 24,2 C 19,4 C 57 % 71 % 1019 hPa 0,0 l/m 0,0 km/h (0 Bft) 1,00 h 0,00 h
03.06.2019 11:00 22,7 C 25,2 C 20,4 C 54 % 75 % 1018 hPa 0,0 l/m 0,0 km/h (0 Bft) 1,00 h 0,00 h
03.06.2019 12:00 22,7 C 26,4 C 21,7 C 49 % 78 % 1018 hPa 0,0 l/m 0,0 km/h (0 Bft) 1,00 h 0,00 h
03.06.2019 13:00 22,8 C 27,4 C 22,4 C 46 % 79 % 1018 hPa 0,0 l/m 0,0 km/h (0 Bft) 1,00 h 0,00 h
03.06.2019 14:00 22,8 C 28,1 C 23,1 C 37 % 78 % 1017 hPa 0,0 l/m 0,0 km/h (0 Bft) 1,00 h 0,00 h
03.06.2019 15:00 23,0 C 28,2 C 22,9 C 33 % 78 % 1016 hPa 0,0 l/m 0,0 km/h (0 Bft) 1,00 h 0,00 h
03.06.2019 16:00 23,0 C 28,3 C 23,0 C 33 % 78 % 1016 hPa 0,0 l/m 0,0 km/h (0 Bft) 1,00 h 0,00 h
03.06.2019 17:00 23,1 C 28,2 C 22,8 C 31 % 77 % 1015 hPa 0,0 l/m 0,0 km/h (0 Bft) 1,00 h 0,00 h
03.06.2019 18:00 23,0 C 27,8 C 22,6 C 31 % 71 % 1015 hPa 0,0 l/m 0,0 km/h (0 Bft) 1,00 h 0,00 h
03.06.2019 19:00 23,0 C 26,5 C 21,3 C 35 % 16 % 1015 hPa 0,0 l/m 0,0 km/h (0 Bft) 0,10 h 0,00 h
03.06.2019 20:00 23,1 C 24,0 C 20,3 C 45 % 5 % 1016 hPa 0,0 l/m 0,0 km/h (0 Bft) 0,55 h 0,00 h
03.06.2019 21:00 23,1 C 21,4 C 19,2 C 59 % 0 % 1016 hPa 0,0 l/m 0,0 km/h (0 Bft) 0,00 h 0,00 h
03.06.2019 22:00 23,1 C 19,4 C 18,1 C 65 % 0 % 1017 hPa 0,0 l/m 0,0 km/h (0 Bft) 0,00 h 0,00 h
03.06.2019 23:00 23,0 C 18,0 C 17,2 C 70 % 0 % 1017 hPa 0,0 l/m 0,0 km/h (0 Bft) 0,00 h 0,00 h
04.06.2019 00:00 22,9 C 17,5 C 16,9 C 70 % 0 % 1017 hPa 0,0 l/m 0,0 km/h (0 Bft) 0,00 h 0,00 h
04.06.2019 01:00 22,4 C 16,6 C 16,2 C 73 % 0 % 1017 hPa 0,0 l/m 0,0 km/h (0 Bft) 0,00 h 0,00 h
04.06.2019 02:00 22,2 C 16,1 C 15,8 C 75 % 0 % 1017 hPa 0,0 l/m 0,0 km/h (0 Bft) 0,00 h 0,00 h
04.06.2019 03:00 22,0 C 15,3 C 15,3 C 79 % 1 % 1017 hPa 0,0 l/m 0,0 km/h (0 Bft) 0,00 h 0,00 h
04.06.2019 04:00 21,7 C 14,4 C 14,8 C 81 % 1 % 1017 hPa 0,0 l/m 0,0 km/h (0 Bft) 0,00 h 0,00 h
04.06.2019 05:00 21,5 C 14,2 C 14,4 C 82 % 7 % 1017 hPa 0,0 l/m 0,0 km/h (0 Bft) 0,65 h 0,00 h
04.06.2019 06:00 21,4 C 15,7 C 15,0 C 81 % 21 % 1017 hPa 0,0 l/m 0,0 km/h (0 Bft) 1,00 h 0,00 h
04.06.2019 07:00 21,6 C 19,0 C 16,1 C 74 % 23 % 1017 hPa 0,0 l/m 0,0 km/h (0 Bft) 0,25 h 0,00 h
04.06.2019 08:00 21,9 C 20,8 C 17,1 C 69 % 30 % 1017 hPa 0,0 l/m 0,0 km/h (0 Bft) 0,15 h 0,00 h
04.06.2019 09:00 22,4 C 22,3 C 18,1 C 64 % 53 % 1017 hPa 0,0 l/m 0,0 km/h (0 Bft) 0,65 h 0,00 h
04.06.2019 10:00 22,7 C 23,3 C 19,3 C 61 % 72 % 1016 hPa 0,0 l/m 0,0 km/h (0 Bft) 1,00 h 0,00 h
04.06.2019 11:00 22,8 C 24,2 C 20,2 C 56 % 76 % 1016 hPa 0,0 l/m 0,0 km/h (0 Bft) 1,00 h 0,00 h
04.06.2019 12:00 22,9 C 25,6 C 21,2 C 53 % 78 % 1016 hPa 0,0 l/m 0,0 km/h (0 Bft) 1,00 h 0,00 h
04.06.2019 13:00 22,9 C 26,6 C 22,0 C 49 % 79 % 1015 hPa 0,0 l/m 0,0 km/h (0 Bft) 1,00 h 0,00 h
04.06.2019 14:00 22,9 C 27,5 C 22,8 C 44 % 78 % 1014 hPa 0,0 l/m 0,0 km/h (0 Bft) 1,00 h 0,00 h
04.06.2019 15:00 22,9 C 28,2 C 22,7 C 42 % 78 % 1014 hPa 0,0 l/m 0,0 km/h (0 Bft) 1,00 h 0,00 h
04.06.2019 16:00 23,2 C 28,6 C 23,1 C 39 % 78 % 1013 hPa 0,0 l/m 0,0 km/h (0 Bft) 1,00 h 0,00 h
04.06.2019 17:00 23,3 C 28,6 C 23,4 C 38 % 76 % 1013 hPa 0,0 l/m 0,0 km/h (0 Bft) 1,00 h 0,00 h
04.06.2019 18:00 23,4 C 28,1 C 23,5 C 42 % 66 % 1012 hPa 0,0 l/m 0,0 km/h (0 Bft) 1,00 h 0,00 h
04.06.2019 19:00 23,3 C 27,1 C 22,6 C 43 % 20 % 1012 hPa 0,0 l/m 0,0 km/h (0 Bft) 1,00 h 0,00 h
04.06.2019 20:00 24,1 C 25,2 C 21,5 C 52 % 6 % 1012 hPa 0,0 l/m 0,0 km/h (0 Bft) 0,85 h 0,00 h
04.06.2019 21:00 24,1 C 22,6 C 20,4 C 62 % 0 % 1012 hPa 0,0 l/m 0,0 km/h (0 Bft) 0,00 h 0,00 h
04.06.2019 22:00 23,9 C 20,9 C 19,5 C 67 % 0 % 1012 hPa 0,0 l/m 0,0 km/h (0 Bft) 0,00 h 0,00 h
04.06.2019 23:00 23,5 C 19,7 C 18,6 C 72 % 0 % 1012 hPa 0,0 l/m 0,0 km/h (0 Bft) 0,00 h 0,00 h
05.06.2019 00:00 23,1 C 18,4 C 17,6 C 75 % 1 % 1012 hPa 0,0 l/m 0,0 km/h (0 Bft) 0,00 h 0,00 h
05.06.2019 01:00 22,8 C 17,5 C 17,0 C 77 % 1 % 1012 hPa 0,0 l/m 0,0 km/h (0 Bft) 0,00 h 0,00 h
05.06.2019 02:00 22,6 C 16,9 C 16,6 C 77 % 1 % 1012 hPa 0,0 l/m 0,0 km/h (0 Bft) 0,00 h 0,00 h
05.06.2019 03:00 22,3 C 16,0 C 16,1 C 79 % 2 % 1011 hPa 0,0 l/m 0,0 km/h (0 Bft) 0,00 h 0,00 h
05.06.2019 04:00 22,1 C 15,4 C 15,6 C 81 % 3 % 1011 hPa 0,0 l/m 0,0 km/h (0 Bft) 0,00 h 0,00 h
05.06.2019 05:00 21,9 C 15,0 C 15,4 C 81 % 7 % 1011 hPa 0,0 l/m 0,0 km/h (0 Bft) 0,70 h 0,00 h
05.06.2019 06:00 21,8 C 16,8 C 15,6 C 79 % 19 % 1011 hPa 0,0 l/m 0,0 km/h (0 Bft) 1,00 h 0,00 h
05.06.2019 07:00 22,0 C 19,9 C 17,1 C 73 % 22 % 1011 hPa 0,0 l/m 0,0 km/h (0 Bft) 0,20 h 0,00 h
05.06.2019 08:00 22,3 C 22,2 C 18,5 C 66 % 29 % 1012 hPa 0,0 l/m 0,0 km/h (0 Bft) 0,15 h 0,00 h
05.06.2019 09:00 22,5 C 24,2 C 19,5 C 61 % 53 % 1012 hPa 0,0 l/m 0,0 km/h (0 Bft) 0,70 h 0,00 h
05.06.2019 10:00 22,6 C 25,3 C 20,8 C 58 % 72 % 1011 hPa 0,0 l/m 0,0 km/h (0 Bft) 1,00 h 0,00 h
05.06.2019 11:00 22,7 C 26,7 C 22,2 C 53 % 75 % 1011 hPa 0,0 l/m 2,8 km/h (1 Bft) 1,00 h 0,00 h
05.06.2019 12:00 22,8 C 27,7 C 23,2 C 47 % 78 % 1011 hPa 0,0 l/m 16,7 km/h (3 Bft) 1,00 h 0,00 h
05.06.2019 13:00 22,8 C 28,5 C 24,4 C 44 % 79 % 1010 hPa 0,0 l/m 14,8 km/h (3 Bft) 1,00 h 0,00 h
05.06.2019 14:00 22,9 C 29,3 C 24,9 C 41 % 78 % 1010 hPa 0,0 l/m 12,6 km/h (3 Bft) 1,00 h 0,00 h
05.06.2019 15:00 23,2 C 29,6 C 25,2 C 37 % 78 % 1009 hPa 0,0 l/m 12,8 km/h (3 Bft) 1,00 h 0,00 h
05.06.2019 16:00 23,2 C 29,6 C 25,1 C 36 % 78 % 1008 hPa 0,0 l/m 11,4 km/h (2 Bft) 1,00 h 0,00 h
05.06.2019 17:00 23,4 C 29,3 C 25,0 C 38 % 74 % 1008 hPa 0,0 l/m 12,1 km/h (2 Bft) 1,00 h 0,00 h
05.06.2019 18:00 23,3 C 28,6 C 24,5 C 40 % 55 % 1008 hPa 0,0 l/m 10,9 km/h (2 Bft) 1,00 h 0,00 h
05.06.2019 19:00 23,3 C 27,2 C 23,6 C 43 % 18 % 1007 hPa 0,0 l/m 10,4 km/h (2 Bft) 0,65 h 0,00 h
05.06.2019 20:00 23,2 C 25,6 C 22,8 C 47 % 6 % 1008 hPa 0,0 l/m 9,7 km/h (2 Bft) 0,85 h 0,00 h
05.06.2019 21:00 23,2 C 23,6 C 21,7 C 52 % 0 % 1008 hPa 0,0 l/m 3,5 km/h (1 Bft) 0,00 h 0,00 h
05.06.2019 22:00 23,2 C 21,9 C 20,6 C 57 % 0 % 1007 hPa 0,0 l/m 0,3 km/h (0 Bft) 0,00 h 0,00 h
05.06.2019 23:00 23,2 C 20,5 C 19,9 C 63 % 0 % 1007 hPa 0,0 l/m 0,0 km/h (0 Bft) 0,00 h 0,00 h
06.06.2019 00:00 23,2 C 19,9 C 19,3 C 66 % 0 % 1007 hPa 0,0 l/m 0,0 km/h (0 Bft) 0,00 h 0,00 h
06.06.2019 01:00 23,1 C 18,7 C 18,4 C 70 % 0 % 1007 hPa 0,0 l/m 0,0 km/h (0 Bft) 0,00 h 0,00 h
06.06.2019 02:00 23,0 C 18,0 C 17,8 C 73 % 0 % 1007 hPa 0,0 l/m 0,1 km/h (0 Bft) 0,00 h 0,00 h
06.06.2019 03:00 22,9 C 17,4 C 17,4 C 76 % 1 % 1007 hPa 0,0 l/m 0,3 km/h (0 Bft) 0,00 h 0,00 h
06.06.2019 04:00 22,8 C 16,9 C 17,0 C 77 % 1 % 1007 hPa 0,0 l/m 0,3 km/h (0 Bft) 0,00 h 0,00 h
06.06.2019 05:00 22,8 C 16,3 C 16,6 C 79 % 7 % 1008 hPa 0,0 l/m 0,2 km/h (0 Bft) 0,65 h 0,00 h
06.06.2019 06:00 22,7 C 18,9 C 17,7 C 76 % 18 % 1009 hPa 0,0 l/m 1,7 km/h (1 Bft) 1,00 h 0,00 h
06.06.2019 07:00 22,6 C 19,2 C 18,2 C 75 % 21 % 1009 hPa 0,0 l/m 3,3 km/h (1 Bft) 0,20 h 0,00 h
06.06.2019 08:00 22,8 C 20,7 C 19,0 C 69 % 33 % 1011 hPa 0,0 l/m 14,1 km/h (3 Bft) 0,35 h 0,00 h
06.06.2019 09:00 23,0 C 21,7 C 19,5 C 65 % 51 % 1011 hPa 0,0 l/m 15,1 km/h (3 Bft) 0,65 h 0,00 h
06.06.2019 10:00 23,1 C 23,0 C 20,4 C 62 % 61 % 1012 hPa 0,0 l/m 12,9 km/h (3 Bft) 0,65 h 0,00 h
06.06.2019 11:00 23,2 C 23,1 C 21,0 C 62 % 66 % 1012 hPa 0,0 l/m 13,5 km/h (3 Bft) 1,00 h 0,00 h
06.06.2019 12:00 23,3 C 24,0 C 21,7 C 60 % 71 % 1013 hPa 0,0 l/m 12,4 km/h (3 Bft) 0,95 h 0,00 h
06.06.2019 13:00 23,3 C 24,4 C 22,0 C 58 % 72 % 1013 hPa 0,0 l/m 11,1 km/h (2 Bft) 1,00 h 0,00 h
06.06.2019 14:00 23,4 C 24,8 C 22,3 C 55 % 72 % 1012 hPa 0,0 l/m 9,7 km/h (2 Bft) 0,80 h 0,00 h
06.06.2019 15:00 23,4 C 25,5 C 22,5 C 52 % 76 % 1012 hPa 0,0 l/m 9,1 km/h (2 Bft) 0,95 h 0,00 h
06.06.2019 16:00 23,5 C 25,4 C 22,6 C 54 % 72 % 1012 hPa 0,0 l/m 8,3 km/h (2 Bft) 0,90 h 0,00 h
06.06.2019 17:00 23,5 C 24,6 C 22,3 C 55 % 38 % 1012 hPa 0,0 l/m 8,3 km/h (2 Bft) 0,25 h 0,00 h
06.06.2019 18:00 23,5 C 24,1 C 22,0 C 57 % 51 % 1012 hPa 0,0 l/m 8,8 km/h (2 Bft) 0,90 h 0,00 h
06.06.2019 19:00 23,5 C 23,1 C 21,6 C 56 % 23 % 1013 hPa 0,0 l/m 12,3 km/h (3 Bft) 1,00 h 0,00 h
06.06.2019 20:00 23,5 C 20,7 C 20,4 C 61 % 6 % 1014 hPa 0,0 l/m 11,9 km/h (2 Bft) 0,40 h 0,00 h
06.06.2019 21:00 23,5 C 17,3 C 18,2 C 74 % 0 % 1016 hPa 1,0 l/m 11,9 km/h (2 Bft) 0,00 h 0,15 h
06.06.2019 22:00 23,6 C 15,3 C 16,4 C 82 % 2 % 1017 hPa 1,7 l/m 9,9 km/h (2 Bft) 0,00 h 0,15 h
06.06.2019 23:00 23,5 C 14,2 C 15,6 C 84 % 3 % 1017 hPa 0,0 l/m 4,2 km/h (1 Bft) 0,00 h 0,00 h
07.06.2019 00:00 23,5 C 13,6 C 15,1 C 84 % 3 % 1018 hPa 0,0 l/m 2,5 km/h (1 Bft) 0,00 h 0,00 h
07.06.2019 01:00 23,5 C 13,2 C 14,7 C 84 % 3 % 1018 hPa 0,0 l/m 0,1 km/h (0 Bft) 0,00 h 0,00 h
07.06.2019 02:00 23,2 C 12,9 C 14,2 C 84 % 3 % 1017 hPa 0,0 l/m 0,0 km/h (0 Bft) 0,00 h 0,00 h
07.06.2019 03:00 22,9 C 12,5 C 13,9 C 85 % 3 % 1017 hPa 0,0 l/m 0,0 km/h (0 Bft) 0,00 h 0,00 h
07.06.2019 04:00 22,8 C 12,1 C 13,5 C 85 % 4 % 1017 hPa 0,0 l/m 0,0 km/h (0 Bft) 0,00 h 0,00 h
07.06.2019 05:00 22,6 C 11,9 C 13,5 C 86 % 8 % 1018 hPa 0,3 l/m 0,0 km/h (0 Bft) 0,65 h 0,05 h
07.06.2019 06:00 22,5 C 13,1 C 13,7 C 85 % 21 % 1018 hPa 0,0 l/m 0,8 km/h (0 Bft) 0,95 h 0,00 h
07.06.2019 07:00 21,8 C 14,9 C 15,1 C 81 % 25 % 1017 hPa 0,0 l/m 1,4 km/h (1 Bft) 0,45 h 0,00 h
07.06.2019 08:00 22,1 C 16,8 C 15,9 C 75 % 31 % 1017 hPa 0,0 l/m 6,6 km/h (2 Bft) 0,10 h 0,00 h
07.06.2019 09:00 22,6 C 17,8 C 16,5 C 73 % 54 % 1017 hPa 0,0 l/m 10,9 km/h (2 Bft) 0,70 h 0,00 h
07.06.2019 10:00 22,7 C 20,2 C 17,8 C 70 % 72 % 1016 hPa 0,0 l/m 13,1 km/h (3 Bft) 0,95 h 0,00 h
07.06.2019 11:00 22,8 C 21,1 C 18,8 C 69 % 67 % 1016 hPa 0,0 l/m 12,9 km/h (3 Bft) 0,75 h 0,00 h
07.06.2019 12:00 23,0 C 22,7 C 20,1 C 65 % 79 % 1015 hPa 0,0 l/m 14,9 km/h (3 Bft) 1,00 h 0,00 h
07.06.2019 13:00 23,1 C 23,9 C 21,1 C 61 % 79 % 1015 hPa 0,0 l/m 15,6 km/h (3 Bft) 1,00 h 0,00 h
07.06.2019 14:00 23,2 C 25,0 C 21,9 C 59 % 79 % 1014 hPa 0,0 l/m 15,1 km/h (3 Bft) 1,00 h 0,00 h
07.06.2019 15:00 23,5 C 25,7 C 22,4 C 55 % 79 % 1013 hPa 0,0 l/m 15,2 km/h (3 Bft) 1,00 h 0,00 h
07.06.2019 16:00 23,5 C 26,3 C 22,9 C 51 % 78 % 1013 hPa 0,0 l/m 15,6 km/h (3 Bft) 1,00 h 0,00 h
07.06.2019 17:00 23,5 C 26,7 C 23,1 C 49 % 77 % 1012 hPa 0,0 l/m 15,8 km/h (3 Bft) 1,00 h 0,00 h
07.06.2019 18:00 23,6 C 26,4 C 23,1 C 52 % 69 % 1012 hPa 0,0 l/m 14,7 km/h (3 Bft) 1,00 h 0,00 h
07.06.2019 19:00 23,6 C 25,6 C 22,8 C 57 % 20 % 1012 hPa 0,0 l/m 13,6 km/h (3 Bft) 0,15 h 0,00 h
07.06.2019 20:00 23,5 C 24,3 C 22,0 C 61 % 6 % 1012 hPa 0,0 l/m 10,3 km/h (2 Bft) 0,90 h 0,00 h
07.06.2019 21:00 23,5 C 22,9 C 21,2 C 66 % 0 % 1012 hPa 0,0 l/m 5,8 km/h (2 Bft) 0,00 h 0,00 h
07.06.2019 22:00 23,4 C 21,2 C 20,2 C 72 % 0 % 1013 hPa 0,0 l/m 0,4 km/h (0 Bft) 0,00 h 0,00 h
07.06.2019 23:00 23,2 C 20,3 C 19,5 C 76 % 1 % 1013 hPa 0,0 l/m 1,0 km/h (0 Bft) 0,00 h 0,00 h
08.06.2019 00:00 23,0 C 19,6 C 19,0 C 78 % 1 % 1014 hPa 0,0 l/m 1,1 km/h (0 Bft) 0,00 h 0,00 h
08.06.2019 01:00 23,0 C 19,8 C 19,0 C 76 % 1 % 1016 hPa 0,0 l/m 11,8 km/h (2 Bft) 0,00 h 0,00 h
08.06.2019 02:00 23,2 C 17,8 C 17,8 C 63 % 0 % 1019 hPa 0,0 l/m 27,1 km/h (4 Bft) 0,00 h 0,00 h
08.06.2019 03:00 23,3 C 16,6 C 17,0 C 59 % 0 % 1021 hPa 0,0 l/m 12,9 km/h (3 Bft) 0,00 h 0,00 h
08.06.2019 04:00 23,3 C 16,0 C 16,5 C 61 % 0 % 1022 hPa 0,0 l/m 8,3 km/h (2 Bft) 0,00 h 0,00 h
08.06.2019 05:00 23,3 C 15,5 C 16,0 C 63 % 3 % 1023 hPa 0,0 l/m 2,1 km/h (1 Bft) 0,05 h 0,00 h
08.06.2019 06:00 23,3 C 15,3 C 15,9 C 66 % 8 % 1024 hPa 0,0 l/m 0,4 km/h (0 Bft) 0,00 h 0,00 h
08.06.2019 07:00 23,3 C 15,4 C 15,8 C 67 % 19 % 1024 hPa 0,0 l/m 5,6 km/h (1 Bft) 0,00 h 0,00 h
08.06.2019 08:00 23,3 C 16,0 C 16,2 C 67 % 28 % 1025 hPa 0,0 l/m 8,5 km/h (2 Bft) 0,00 h 0,00 h
08.06.2019 09:00 23,3 C 17,0 C 16,7 C 63 % 47 % 1026 hPa 0,0 l/m 11,1 km/h (2 Bft) 0,40 h 0,00 h
08.06.2019 10:00 23,4 C 17,7 C 17,1 C 60 % 56 % 1026 hPa 0,0 l/m 12,5 km/h (3 Bft) 0,60 h 0,00 h
08.06.2019 11:00 23,4 C 18,7 C 17,8 C 55 % 73 % 1026 hPa 0,0 l/m 12,0 km/h (2 Bft) 1,00 h 0,00 h
08.06.2019 12:00 23,4 C 19,4 C 18,4 C 45 % 77 % 1027 hPa 0,0 l/m 12,2 km/h (2 Bft) 1,00 h 0,00 h
08.06.2019 13:00 23,5 C 20,4 C 19,0 C 40 % 79 % 1027 hPa 0,0 l/m 9,2 km/h (2 Bft) 1,00 h 0,00 h
08.06.2019 14:00 23,5 C 21,2 C 19,5 C 40 % 79 % 1026 hPa 0,0 l/m 8,4 km/h (2 Bft) 1,00 h 0,00 h
08.06.2019 15:00 23,5 C 21,5 C 19,8 C 40 % 79 % 1026 hPa 0,0 l/m 6,9 km/h (2 Bft) 1,00 h 0,00 h
08.06.2019 16:00 23,6 C 21,8 C 19,8 C 39 % 79 % 1026 hPa 0,0 l/m 4,8 km/h (1 Bft) 1,00 h 0,00 h
08.06.2019 17:00 23,6 C 22,1 C 20,0 C 39 % 77 % 1026 hPa 0,0 l/m 5,0 km/h (1 Bft) 1,00 h 0,00 h
08.06.2019 18:00 23,6 C 21,8 C 19,8 C 40 % 69 % 1025 hPa 0,0 l/m 2,8 km/h (1 Bft) 1,00 h 0,00 h
08.06.2019 19:00 23,6 C 21,2 C 19,4 C 41 % 21 % 1025 hPa 0,0 l/m 4,4 km/h (1 Bft) 0,45 h 0,00 h
08.06.2019 20:00 23,6 C 19,7 C 18,6 C 44 % 6 % 1025 hPa 0,0 l/m 2,0 km/h (1 Bft) 0,90 h 0,00 h
08.06.2019 21:00 23,6 C 17,7 C 17,8 C 55 % 1 % 1026 hPa 0,0 l/m 0,0 km/h (0 Bft) 0,00 h 0,00 h
08.06.2019 22:00 23,6 C 16,8 C 17,2 C 61 % 0 % 1026 hPa 0,0 l/m 0,1 km/h (0 Bft) 0,00 h 0,00 h
08.06.2019 23:00 23,6 C 16,5 C 16,7 C 64 % 0 % 1026 hPa 0,0 l/m 0,3 km/h (0 Bft) 0,00 h 0,00 h
09.06.2019 00:00 23,6 C 16,4 C 16,7 C 67 % 0 % 1026 hPa 0,0 l/m 0,0 km/h (0 Bft) 0,00 h 0,00 h
09.06.2019 01:00 23,6 C 16,2 C 16,5 C 69 % 0 % 1026 hPa 0,0 l/m 0,2 km/h (0 Bft) 0,00 h 0,00 h
09.06.2019 02:00 23,6 C 15,8 C 16,2 C 70 % 0 % 1026 hPa 0,0 l/m 0,4 km/h (0 Bft) 0,00 h 0,00 h
09.06.2019 03:00 23,6 C 15,4 C 16,0 C 71 % 0 % 1026 hPa 0,0 l/m 0,1 km/h (0 Bft) 0,00 h 0,00 h
09.06.2019 04:00 23,6 C 14,7 C 15,5 C 72 % 0 % 1026 hPa 0,0 l/m 0,1 km/h (0 Bft) 0,00 h 0,00 h
09.06.2019 05:00 23,6 C 13,7 C 14,7 C 74 % 4 % 1025 hPa 0,0 l/m 0,1 km/h (0 Bft) 0,65 h 0,00 h
09.06.2019 06:00 23,6 C 14,4 C 15,0 C 74 % 20 % 1025 hPa 0,0 l/m 1,0 km/h (0 Bft) 1,00 h 0,00 h
09.06.2019 07:00 23,6 C 17,4 C 17,1 C 64 % 21 % 1025 hPa 0,0 l/m 1,3 km/h (1 Bft) 0,25 h 0,00 h
09.06.2019 08:00 23,6 C 20,3 C 18,0 C 54 % 28 % 1025 hPa 0,0 l/m 3,5 km/h (1 Bft) 0,15 h 0,00 h
09.06.2019 09:00 23,6 C 22,4 C 19,1 C 50 % 52 % 1024 hPa 0,0 l/m 10,9 km/h (2 Bft) 0,60 h 0,00 h
09.06.2019 10:00 23,6 C 23,4 C 20,4 C 47 % 71 % 1024 hPa 0,0 l/m 17,6 km/h (3 Bft) 1,00 h 0,00 h
09.06.2019 11:00 23,7 C 24,0 C 21,3 C 46 % 75 % 1024 hPa 0,0 l/m 21,2 km/h (4 Bft) 1,00 h 0,00 h
09.06.2019 12:00 23,7 C 25,3 C 22,4 C 45 % 78 % 1023 hPa 0,0 l/m 13,6 km/h (3 Bft) 1,00 h 0,00 h
09.06.2019 13:00 23,8 C 26,3 C 23,3 C 43 % 79 % 1022 hPa 0,0 l/m 15,8 km/h (3 Bft) 1,00 h 0,00 h
09.06.2019 14:00 23,8 C 27,0 C 23,9 C 42 % 78 % 1022 hPa 0,0 l/m 16,1 km/h (3 Bft) 1,00 h 0,00 h
09.06.2019 15:00 23,8 C 27,1 C 24,2 C 42 % 71 % 1021 hPa 0,0 l/m 13,6 km/h (3 Bft) 1,00 h 0,00 h
09.06.2019 16:00 23,9 C 26,2 C 23,9 C 44 % 55 % 1020 hPa 0,0 l/m 12,8 km/h (3 Bft) 0,80 h 0,00 h
09.06.2019 17:00 23,9 C 26,5 C 23,9 C 45 % 69 % 1020 hPa 0,0 l/m 11,5 km/h (2 Bft) 1,00 h 0,00 h
09.06.2019 18:00 23,9 C 26,6 C 24,1 C 45 % 51 % 1019 hPa 0,0 l/m 11,4 km/h (2 Bft) 1,00 h 0,00 h
09.06.2019 19:00 23,9 C 25,2 C 23,1 C 49 % 18 % 1019 hPa 0,0 l/m 4,9 km/h (1 Bft) 0,90 h 0,00 h
09.06.2019 20:00 23,9 C 23,0 C 21,8 C 56 % 4 % 1019 hPa 0,0 l/m 0,3 km/h (0 Bft) 0,15 h 0,00 h
09.06.2019 21:00 23,9 C 21,0 C 20,8 C 62 % 0 % 1019 hPa 0,0 l/m 0,0 km/h (0 Bft) 0,00 h 0,00 h
09.06.2019 22:00 23,9 C 19,7 C 19,7 C 67 % 0 % 1019 hPa 0,0 l/m 0,2 km/h (0 Bft) 0,00 h 0,00 h
09.06.2019 23:00 23,9 C 18,6 C 18,9 C 72 % 0 % 1019 hPa 0,0 l/m 0,1 km/h (0 Bft) 0,00 h 0,00 h
Min-Datum _ 07.06.19 07.06.19 07.06.19 03.06.19 - 06.06.19 - 03.06.19 - -
_ Min-Zeit 07:42 05:27 06:09 18:16 - 03:08 - 00:01 - -
Minimum _ 21,1 C 11,8 C 12,9 C 29 % - 1006 hPa - 0,0 km/h (0 Bft) - -
Max-Datum _ 04.06.19 05.06.19 05.06.19 07.06.19 06.06.19 08.06.19 06.06.19 08.06.19 03.06.19 06.06.19
_ Max-Zeit 20:32 16:02 17:23 04:54 13:06 12:00 22:27 02:00 05:22 21:09
Maximum _ 24,6 C 29,7 C 25,8 C 86 % 80 % 1027 hPa 1,7 l/m 42,3 km/h
N (6 Bft)
0,05 h 0,05 h
Durchschnitt _ 23,1 C 21,0 C 19,2 C 61 % #86:27 h 1017 hPa #3,1 l/m 4,8 km/h (1 Bft) #86:27 h #21 min.